createdAt,value
2019-01-29T00:02:50.065Z,3.40
2019-01-29T00:06:53.562Z,3.67
2019-01-29T00:10:56.989Z,3.57
2019-01-29T00:15:00.411Z,4.17
2019-01-29T00:19:04.303Z,3.63
2019-01-29T00:33:15.090Z,4.00
2019-01-29T00:38:04.114Z,3.77
2019-01-29T00:42:07.544Z,4.40
2019-01-29T00:46:11.012Z,4.10
2019-01-29T00:50:16.084Z,4.37
2019-01-29T00:54:19.513Z,4.70
2019-01-29T00:58:22.942Z,4.13
2019-01-29T01:02:27.163Z,4.30
2019-01-29T01:06:30.594Z,4.20
2019-01-29T01:10:34.003Z,4.17
2019-01-29T01:14:37.431Z,4.33
2019-01-29T01:18:40.930Z,3.80
2019-01-29T01:22:50.707Z,4.03
2019-01-29T01:26:49.495Z,4.40
2019-01-29T01:30:52.918Z,4.53
2019-01-29T01:34:56.338Z,3.87
2019-01-29T01:38:59.767Z,4.37
2019-01-29T01:43:03.195Z,4.00
2019-01-29T01:47:06.615Z,4.20
2019-01-29T01:51:10.032Z,4.10
2019-01-29T01:55:17.899Z,4.60
2019-01-29T01:59:21.361Z,4.80
2019-01-29T02:03:24.787Z,4.60
2019-01-29T02:07:28.199Z,4.53
2019-01-29T02:11:31.619Z,4.67
2019-01-29T02:15:35.129Z,4.67
2019-01-29T02:19:38.568Z,4.70
2019-01-29T02:23:42.014Z,4.30
2019-01-29T02:27:45.436Z,4.60
2019-01-29T02:31:48.932Z,4.03
2019-01-29T02:35:52.372Z,4.57
2019-01-29T02:39:55.881Z,4.00
2019-01-29T02:43:59.294Z,4.00
2019-01-29T02:48:02.732Z,4.33
2019-01-29T02:52:06.248Z,3.80
2019-01-29T02:56:09.740Z,4.30
2019-01-29T03:00:22.117Z,4.17
2019-01-29T03:04:25.532Z,4.13
2019-01-29T03:08:28.964Z,4.50
2019-01-29T03:12:32.400Z,4.30
2019-01-29T03:16:35.824Z,4.40
2019-01-29T03:20:39.325Z,4.37
2019-01-29T03:24:42.745Z,3.63
2019-01-29T03:28:46.175Z,3.60
2019-01-29T03:32:49.674Z,3.27
2019-01-29T03:36:53.452Z,3.60
2019-01-29T03:40:56.874Z,3.20
2019-01-29T03:45:00.298Z,4.03
2019-01-29T03:49:03.860Z,5.30
2019-01-29T03:53:07.279Z,3.57
2019-01-29T03:57:10.694Z,3.17
2019-01-29T04:01:14.119Z,3.50
2019-01-29T04:05:17.535Z,3.20
2019-01-29T04:09:20.956Z,2.87
2019-01-29T04:13:24.391Z,2.93
2019-01-29T04:17:27.815Z,3.10
2019-01-29T04:21:31.221Z,2.90
2019-01-29T04:25:34.660Z,11.27
2019-01-29T04:29:38.072Z,3.07
2019-01-29T04:33:41.495Z,3.20
2019-01-29T04:37:44.920Z,3.10
2019-01-29T04:41:48.339Z,2.83
2019-01-29T04:45:51.762Z,3.00
2019-01-29T04:49:55.194Z,2.63
2019-01-29T04:53:58.619Z,2.70
2019-01-29T04:58:02.044Z,2.37
2019-01-29T05:02:05.460Z,2.60
2019-01-29T05:06:08.872Z,2.63
2019-01-29T05:10:14.843Z,2.50
2019-01-29T05:14:18.308Z,2.77
2019-01-29T05:18:21.738Z,2.80
2019-01-29T05:22:25.146Z,2.23
2019-01-29T05:26:28.575Z,2.40
2019-01-29T05:30:31.995Z,2.50
2019-01-29T05:34:35.418Z,2.50
2019-01-29T05:38:38.856Z,2.67
2019-01-29T05:42:42.278Z,2.70
2019-01-29T05:46:45.690Z,2.60
2019-01-29T05:50:50.577Z,2.63
2019-01-29T05:54:54.089Z,2.87
2019-01-29T05:58:57.478Z,2.50
2019-01-29T06:03:00.904Z,2.50
2019-01-29T06:07:04.421Z,2.77
2019-01-29T06:11:07.838Z,3.30
2019-01-29T06:15:14.498Z,2.87
2019-01-29T06:19:17.915Z,3.00
2019-01-29T06:23:21.326Z,3.13
2019-01-29T06:27:24.754Z,3.17
2019-01-29T06:31:28.185Z,3.20
2019-01-29T06:35:31.612Z,3.50
2019-01-29T06:39:35.038Z,4.30
2019-01-29T06:43:38.475Z,3.80
2019-01-29T06:47:41.890Z,3.80
2019-01-29T06:51:45.316Z,3.57
2019-01-29T06:55:48.756Z,3.90
2019-01-29T06:59:52.187Z,3.37
2019-01-29T07:03:55.667Z,3.37
2019-01-29T07:07:59.197Z,3.37
2019-01-29T07:12:02.686Z,3.73
2019-01-29T07:16:13.326Z,4.17
2019-01-29T07:20:16.820Z,3.47
2019-01-29T07:24:20.244Z,3.90
2019-01-29T07:28:23.676Z,4.30
2019-01-29T07:32:27.094Z,4.47
2019-01-29T07:36:30.530Z,4.40
2019-01-29T07:40:34.017Z,4.20
2019-01-29T07:44:37.470Z,4.40
2019-01-29T07:48:40.891Z,4.57
2019-01-29T07:52:44.329Z,4.70
2019-01-29T07:56:47.819Z,4.53
2019-01-29T08:00:51.215Z,4.20
2019-01-29T08:04:54.643Z,4.53
2019-01-29T08:08:58.112Z,4.83
2019-01-29T08:13:01.598Z,5.00
2019-01-29T08:17:05.215Z,4.50
2019-01-29T08:21:08.723Z,4.57
2019-01-29T08:25:12.286Z,4.40
2019-01-29T08:29:15.783Z,4.50
2019-01-29T08:33:19.196Z,5.80
2019-01-29T08:37:22.615Z,4.57
2019-01-29T08:41:26.043Z,4.80
2019-01-29T08:45:29.489Z,4.20
2019-01-29T08:49:32.908Z,5.13
2019-01-29T08:53:36.367Z,5.27
2019-01-29T08:57:39.766Z,4.90
2019-01-29T09:01:43.203Z,4.90
2019-01-29T09:05:46.632Z,4.43
2019-01-29T09:09:50.071Z,4.13
2019-01-29T09:13:53.485Z,5.13
2019-01-29T09:17:56.945Z,4.63
2019-01-29T09:22:00.427Z,4.67
2019-01-29T09:26:03.878Z,5.03
2019-01-29T09:30:18.606Z,5.43
2019-01-29T09:34:22.160Z,4.97
2019-01-29T09:38:25.609Z,4.60
2019-01-29T09:42:29.243Z,4.10
2019-01-29T09:46:32.765Z,4.30
2019-01-29T09:50:36.301Z,4.23
2019-01-29T09:54:39.790Z,4.33
2019-01-29T09:58:43.202Z,4.03
2019-01-29T10:02:46.728Z,3.67
2019-01-29T10:06:50.156Z,4.33
2019-01-29T10:10:53.584Z,3.53
2019-01-29T10:14:56.999Z,4.03
2019-01-29T10:19:00.423Z,3.40
2019-01-29T10:23:03.851Z,3.37
2019-01-29T10:27:07.279Z,3.70
2019-01-29T10:31:10.739Z,4.13
2019-01-29T10:35:19.728Z,4.30
2019-01-29T10:39:23.160Z,4.30
2019-01-29T10:43:26.574Z,4.93
2019-01-29T10:47:30.013Z,4.83
2019-01-29T10:51:33.432Z,4.77
2019-01-29T10:55:36.863Z,4.97
2019-01-29T10:59:40.327Z,4.87
2019-01-29T11:03:43.832Z,5.33
2019-01-29T11:07:47.242Z,5.00
2019-01-29T11:11:50.651Z,4.70
2019-01-29T11:15:54.087Z,4.60
2019-01-29T11:19:57.512Z,4.90
2019-01-29T11:24:00.935Z,5.47
2019-01-29T11:28:04.787Z,5.50
2019-01-29T11:32:08.205Z,5.10
2019-01-29T11:36:11.722Z,5.37
2019-01-29T11:40:26.969Z,5.37
2019-01-29T11:44:30.424Z,5.57
2019-01-29T11:48:33.915Z,7.57
2019-01-29T11:52:37.408Z,5.57
2019-01-29T11:56:40.835Z,5.63
2019-01-29T12:00:48.899Z,5.70
2019-01-29T12:04:52.323Z,6.17
2019-01-29T12:08:55.896Z,5.70
2019-01-29T12:12:59.332Z,5.70
2019-01-29T12:17:02.880Z,6.17
2019-01-29T12:21:06.321Z,5.63
2019-01-29T12:25:10.221Z,5.97
2019-01-29T12:29:13.622Z,6.03
2019-01-29T12:33:17.628Z,5.73
2019-01-29T12:37:21.058Z,5.37
2019-01-29T12:41:24.536Z,5.70
2019-01-29T12:45:28.128Z,5.33
2019-01-29T12:49:31.628Z,6.00
2019-01-29T12:53:35.168Z,5.07
2019-01-29T12:57:38.600Z,5.33
2019-01-29T13:01:42.027Z,12.47
2019-01-29T13:05:45.454Z,5.87
2019-01-29T13:09:48.862Z,5.40
2019-01-29T13:13:52.286Z,5.30
2019-01-29T13:17:56.397Z,6.00
2019-01-29T13:21:59.827Z,6.27
2019-01-29T13:26:03.279Z,5.57
2019-01-29T13:30:12.615Z,5.60
2019-01-29T13:34:16.060Z,5.20
2019-01-29T13:38:20.051Z,5.27
2019-01-29T13:42:23.482Z,4.73
2019-01-29T13:46:26.916Z,5.30
2019-01-29T13:50:39.127Z,4.90
2019-01-29T13:54:42.559Z,4.43
2019-01-29T13:58:45.979Z,4.60
2019-01-29T14:02:49.678Z,4.60
2019-01-29T14:06:53.279Z,5.43
2019-01-29T14:10:56.765Z,4.23
2019-01-29T14:15:00.271Z,4.73
2019-01-29T14:19:03.709Z,4.80
2019-01-29T14:23:08.979Z,18.17
2019-01-29T14:27:12.433Z,5.00
2019-01-29T14:31:15.971Z,4.80
2019-01-29T14:35:19.483Z,5.30
2019-01-29T14:39:26.188Z,5.50
2019-01-29T14:43:35.795Z,5.20
2019-01-29T14:47:39.313Z,5.07
2019-01-29T14:51:42.736Z,4.63
2019-01-29T14:55:46.235Z,4.67
2019-01-29T14:59:49.655Z,4.70
2019-01-29T15:03:53.128Z,5.17
2019-01-29T15:07:56.582Z,4.43
2019-01-29T15:12:00.090Z,5.10
2019-01-29T15:16:05.799Z,5.60
2019-01-29T15:20:11.810Z,5.53
2019-01-29T15:24:15.325Z,5.17
2019-01-29T15:28:18.915Z,5.40
2019-01-29T15:32:22.348Z,5.60
2019-01-29T15:36:25.852Z,6.37
2019-01-29T15:40:29.293Z,6.57
2019-01-29T15:44:32.752Z,6.30
2019-01-29T15:48:36.167Z,5.33
2019-01-29T15:52:48.299Z,5.10
2019-01-29T15:56:44.822Z,5.47
2019-01-29T16:00:48.259Z,5.77
2019-01-29T16:04:51.695Z,5.33
2019-01-29T16:08:55.151Z,5.50
2019-01-29T16:12:58.578Z,6.30
2019-01-29T16:17:02.003Z,5.80
2019-01-29T16:21:05.435Z,5.97
2019-01-29T16:25:11.652Z,5.93
2019-01-29T16:29:15.083Z,6.10
2019-01-29T16:33:18.588Z,5.90
2019-01-29T16:37:22.020Z,6.20
2019-01-29T16:41:25.453Z,5.70
2019-01-29T16:45:31.308Z,6.80
2019-01-29T16:49:34.743Z,7.10
2019-01-29T16:53:38.202Z,6.83
2019-01-29T16:57:41.637Z,7.13
2019-01-29T17:01:45.072Z,7.10
2019-01-29T17:05:48.483Z,6.13
2019-01-29T17:09:51.920Z,7.70
2019-01-29T17:13:55.364Z,7.40
2019-01-29T17:18:00.208Z,7.83
2019-01-29T17:22:03.634Z,8.73
2019-01-29T17:26:07.055Z,7.90
2019-01-29T17:30:16.106Z,7.47
2019-01-29T17:34:19.522Z,7.77
2019-01-29T17:38:22.960Z,8.77
2019-01-29T17:42:26.388Z,11.63
2019-01-29T17:46:31.300Z,9.30
2019-01-29T17:50:37.651Z,9.70
2019-01-29T17:54:41.104Z,10.33
2019-01-29T17:58:44.547Z,10.67
2019-01-29T18:02:48.062Z,10.80
2019-01-29T18:06:51.493Z,10.30
2019-01-29T18:10:54.955Z,12.13
2019-01-29T18:14:58.387Z,12.80
2019-01-29T18:19:01.818Z,11.43
2019-01-29T18:23:06.000Z,11.70
2019-01-29T18:27:09.623Z,11.93
2019-01-29T18:31:13.054Z,11.63
2019-01-29T18:35:16.591Z,11.97
2019-01-29T18:39:20.022Z,12.07
2019-01-29T18:43:23.515Z,11.87
2019-01-29T18:47:26.950Z,12.87
2019-01-29T18:51:30.375Z,14.70
2019-01-29T18:55:33.811Z,15.70
2019-01-29T18:59:37.246Z,12.70
2019-01-29T19:03:40.661Z,14.90
2019-01-29T19:07:44.917Z,14.37
2019-01-29T19:11:48.479Z,26.97
2019-01-29T19:15:52.017Z,14.23
2019-01-29T19:19:55.610Z,13.47
2019-01-29T19:23:59.060Z,13.70
2019-01-29T19:28:02.487Z,14.03
2019-01-29T19:32:05.928Z,14.00
2019-01-29T19:36:10.796Z,12.30
2019-01-29T19:40:16.351Z,13.57
2019-01-29T19:44:19.783Z,13.27
2019-01-29T19:48:23.220Z,14.23
2019-01-29T19:52:26.912Z,12.97
2019-01-29T19:56:30.574Z,12.80
2019-01-29T20:00:36.940Z,13.53
2019-01-29T20:04:40.381Z,14.53
2019-01-29T20:08:43.814Z,13.63
2019-01-29T20:12:47.246Z,13.57
2019-01-29T20:16:50.685Z,13.50
2019-01-29T20:20:54.112Z,12.83
2019-01-29T20:24:57.548Z,12.83
2019-01-29T20:29:00.979Z,12.30
2019-01-29T20:33:05.322Z,12.67
2019-01-29T20:37:09.167Z,12.37
2019-01-29T20:41:12.574Z,11.57
2019-01-29T20:45:16.456Z,11.83
2019-01-29T20:49:19.891Z,12.03
2019-01-29T20:53:24.168Z,11.80
2019-01-29T20:57:27.596Z,12.63
2019-01-29T21:01:31.027Z,12.63
2019-01-29T21:05:34.998Z,12.63
2019-01-29T21:09:39.439Z,12.63
2019-01-29T21:13:42.873Z,11.93
2019-01-29T21:17:46.291Z,12.13
2019-01-29T21:21:49.716Z,13.70
2019-01-29T21:25:53.151Z,13.80
2019-01-29T21:29:56.596Z,14.23
2019-01-29T21:34:00.031Z,12.73
2019-01-29T21:38:04.138Z,12.27
2019-01-29T21:42:07.635Z,12.13
2019-01-29T21:46:11.072Z,14.13
2019-01-29T21:50:20.495Z,14.17
2019-01-29T21:54:23.910Z,12.90
2019-01-29T21:58:27.343Z,11.83
2019-01-29T22:02:30.780Z,10.43
2019-01-29T22:06:34.240Z,9.93
2019-01-29T22:10:37.864Z,9.57
2019-01-29T22:14:41.298Z,9.00
2019-01-29T22:18:44.719Z,8.93
2019-01-29T22:22:48.221Z,9.17
2019-01-29T22:26:51.647Z,8.93
2019-01-29T22:30:55.063Z,9.47
2019-01-29T22:34:58.498Z,9.70
2019-01-29T22:39:01.924Z,9.73
2019-01-29T22:43:05.785Z,9.77
2019-01-29T22:47:09.216Z,10.43
2019-01-29T22:51:12.647Z,10.77
2019-01-29T22:55:16.171Z,10.90
2019-01-29T22:59:19.622Z,11.27
2019-01-29T23:03:32.265Z,11.27
2019-01-29T23:07:35.695Z,10.30
2019-01-29T23:11:39.112Z,10.40
2019-01-29T23:15:42.691Z,10.57
2019-01-29T23:19:46.121Z,12.40
2019-01-29T23:23:49.550Z,10.20
2019-01-29T23:27:52.975Z,10.63
2019-01-29T23:31:56.410Z,10.50
2019-01-29T23:35:59.831Z,10.13
2019-01-29T23:40:04.791Z,10.10
2019-01-29T23:44:08.699Z,10.80
2019-01-29T23:48:12.210Z,10.67
2019-01-29T23:52:15.619Z,9.47
2019-01-29T23:56:19.067Z,9.80
